Wayzata, Minnesota
Current Conditions -  °F | °C
As of 2:53 PM on Friday 24 Oct 2014 (Local Time) from KFCM Reporting Station
Clear Clear  
Wind Chill: 67°   Ceiling: Unl
Heat Index: 67°   Visibility: 10mi
Dew Point: 54°   Wind: 9mph
Humidity: 63%   Direction: 230°SW
Pressure: 29.81"   Gusts: NA
Location:  44.97°N, 93.51°W
Report Text: KFCM 241953Z 23008KT 10SM CLR 19/12 A2981 RMK AO2 SLP094 T01940122
Loading
Personal Weather Stations






























Interactive Weather Map
Tropical Storm Tracking
New forecast layout! Learn more

10-Day Weather Forecast

Advertisements
Track Severe Weather on mobile